createdAt,value
2019-05-26T00:04:03.790Z,18.43
2019-05-26T00:10:48.997Z,18.93
2019-05-26T00:17:33.882Z,22.00
2019-05-26T00:24:18.848Z,19.80
2019-05-26T00:31:03.819Z,21.40
2019-05-26T00:37:50.545Z,21.30
2019-05-26T00:44:36.298Z,22.67
2019-05-26T00:51:21.389Z,28.53
2019-05-26T00:58:06.370Z,29.93
2019-05-26T01:04:51.257Z,29.50
2019-05-26T01:11:36.283Z,27.63
2019-05-26T01:18:22.200Z,27.13
2019-05-26T01:25:08.017Z,27.87
2019-05-26T01:31:53.032Z,25.27
2019-05-26T01:38:38.853Z,26.97
2019-05-26T01:45:23.794Z,26.63
2019-05-26T01:52:08.710Z,27.37
2019-05-26T01:58:54.711Z,26.93
2019-05-26T02:05:39.643Z,26.20
2019-05-26T02:12:24.871Z,28.53
2019-05-26T02:19:09.750Z,28.23
2019-05-26T02:25:54.848Z,28.37
2019-05-26T02:32:39.991Z,27.17
2019-05-26T02:39:24.899Z,28.87
2019-05-26T02:46:10.000Z,27.97
2019-05-26T02:52:54.871Z,26.83
2019-05-26T02:59:39.826Z,27.27
2019-05-26T03:06:26.016Z,26.80
2019-05-26T03:13:13.260Z,25.90
2019-05-26T03:20:01.020Z,25.73
2019-05-26T03:26:47.854Z,26.00
2019-05-26T03:33:33.034Z,25.27
2019-05-26T03:40:18.140Z,26.73
2019-05-26T03:47:03.430Z,26.67
2019-05-26T03:53:48.375Z,25.87
2019-05-26T04:00:33.626Z,25.23
2019-05-26T04:07:18.763Z,26.20
2019-05-26T04:14:04.284Z,23.87
2019-05-26T04:20:49.235Z,23.50
2019-05-26T04:27:34.324Z,21.93
2019-05-26T04:34:19.283Z,22.30
2019-05-26T04:41:04.848Z,20.37
2019-05-26T04:47:49.868Z,20.45
2019-05-26T04:54:34.814Z,20.07
2019-05-26T05:01:19.701Z,16.73
2019-05-26T05:08:05.064Z,11.80
2019-05-26T05:14:50.135Z,10.27
2019-05-26T05:21:35.461Z,9.83
2019-05-26T05:28:20.566Z,8.98
2019-05-26T05:35:08.887Z,8.45
2019-05-26T05:41:54.031Z,8.68
2019-05-26T05:48:39.468Z,8.00
2019-05-26T05:55:24.423Z,7.72
2019-05-26T06:02:09.293Z,7.15
2019-05-26T06:08:54.310Z,6.55
2019-05-26T06:15:39.339Z,6.60
2019-05-26T06:22:24.223Z,5.90
2019-05-26T06:29:09.245Z,5.20
2019-05-26T06:35:54.286Z,5.97
2019-05-26T06:42:39.223Z,5.47
2019-05-26T06:49:24.599Z,5.30
2019-05-26T06:56:11.555Z,5.75
2019-05-26T07:02:56.504Z,6.00
2019-05-26T07:09:41.473Z,4.87
2019-05-26T07:16:37.629Z,5.65
2019-05-26T07:23:13.965Z,5.23
2019-05-26T07:29:58.834Z,5.55
2019-05-26T07:36:43.713Z,5.10
2019-05-26T07:43:28.889Z,6.25
2019-05-26T07:50:14.454Z,5.67
2019-05-26T07:56:59.332Z,5.70
2019-05-26T08:03:44.271Z,6.75
2019-05-26T08:10:29.219Z,5.75
2019-05-26T08:17:14.274Z,6.00
2019-05-26T08:23:59.317Z,5.80
2019-05-26T08:30:44.515Z,5.70
2019-05-26T08:37:29.514Z,6.28
2019-05-26T08:44:14.602Z,6.55
2019-05-26T08:50:59.562Z,6.28
2019-05-26T08:57:45.023Z,6.28
2019-05-26T09:04:29.947Z,6.28
2019-05-26T09:11:14.881Z,5.87
2019-05-26T09:18:00.019Z,6.08
2019-05-26T09:24:44.934Z,5.60
2019-05-26T09:31:34.027Z,6.15
2019-05-26T09:38:17.419Z,6.87
2019-05-26T09:45:02.301Z,5.78
2019-05-26T09:51:47.698Z,6.12
2019-05-26T09:58:33.682Z,7.33
2019-05-26T10:05:18.834Z,6.87
2019-05-26T10:12:04.026Z,6.70
2019-05-26T10:18:50.331Z,5.75
2019-05-26T10:25:35.545Z,6.70
2019-05-26T10:32:20.495Z,6.13
2019-05-26T10:39:08.138Z,6.15
2019-05-26T10:45:53.071Z,6.75
2019-05-26T10:52:38.116Z,6.90
2019-05-26T10:59:23.035Z,6.30
2019-05-26T11:06:07.970Z,6.03
2019-05-26T11:12:52.831Z,6.30
2019-05-26T11:19:37.698Z,6.60
2019-05-26T11:26:22.696Z,5.97
2019-05-26T11:33:07.649Z,5.40
2019-05-26T11:39:54.556Z,4.97
2019-05-26T11:46:39.443Z,4.85
2019-05-26T11:53:24.754Z,6.12
2019-05-26T12:00:12.466Z,5.20
2019-05-26T12:06:57.592Z,4.93
2019-05-26T12:13:42.594Z,5.45
2019-05-26T12:20:27.867Z,4.72
2019-05-26T12:27:12.816Z,4.97
2019-05-26T12:33:58.034Z,4.22
2019-05-26T12:40:43.307Z,4.60
2019-05-26T12:47:28.356Z,5.05
2019-05-26T12:54:13.856Z,4.12
2019-05-26T13:01:02.113Z,3.80
2019-05-26T13:07:47.236Z,3.02
2019-05-26T13:14:32.241Z,2.62
2019-05-26T13:21:17.185Z,2.30
2019-05-26T13:28:02.155Z,2.27
2019-05-26T13:34:47.099Z,2.37
2019-05-26T13:41:32.054Z,2.50
2019-05-26T13:48:17.299Z,2.10
2019-05-26T13:55:03.059Z,2.60
2019-05-26T14:01:48.467Z,2.40
2019-05-26T14:08:33.600Z,2.47
2019-05-26T14:15:18.747Z,2.47
2019-05-26T14:22:03.631Z,2.30
2019-05-26T14:28:48.585Z,2.10
2019-05-26T14:35:33.626Z,2.17
2019-05-26T14:42:18.562Z,2.00
2019-05-26T14:49:05.677Z,2.20
2019-05-26T14:55:50.780Z,2.45
2019-05-26T15:02:35.783Z,2.65
2019-05-26T15:09:25.102Z,2.60
2019-05-26T15:16:10.237Z,2.70
2019-05-26T15:22:54.007Z,2.43
2019-05-26T15:29:38.883Z,1.77
2019-05-26T15:36:23.852Z,2.17
2019-05-26T15:43:09.798Z,2.12
2019-05-26T15:49:54.912Z,1.95
2019-05-26T15:56:40.129Z,2.20
2019-05-26T16:03:25.147Z,2.20
2019-05-26T16:10:10.332Z,2.12
2019-05-26T16:16:55.526Z,2.00
2019-05-26T16:23:40.683Z,1.90
2019-05-26T16:30:25.543Z,2.45
2019-05-26T16:37:10.861Z,1.90
2019-05-26T16:43:56.005Z,1.60
2019-05-26T16:50:41.267Z,2.12
2019-05-26T16:57:26.319Z,1.70
2019-05-26T17:04:11.346Z,1.98
2019-05-26T17:10:56.319Z,1.87
2019-05-26T17:17:41.187Z,2.12
2019-05-26T17:24:26.211Z,2.05
2019-05-26T17:31:11.147Z,2.00
2019-05-26T17:37:56.075Z,1.90
2019-05-26T17:44:41.088Z,1.70
2019-05-26T17:51:26.091Z,1.65
2019-05-26T17:58:12.088Z,2.02
2019-05-26T18:04:56.979Z,2.02
2019-05-26T18:11:41.940Z,1.72
2019-05-26T18:18:26.802Z,1.62
2019-05-26T18:25:12.015Z,2.40
2019-05-26T18:31:56.984Z,1.90
2019-05-26T18:38:41.999Z,2.20
2019-05-26T18:45:26.945Z,2.35
2019-05-26T18:52:12.143Z,2.72
2019-05-26T18:58:57.020Z,4.58
2019-05-26T19:05:44.021Z,3.77
2019-05-26T19:12:29.890Z,3.22
2019-05-26T19:19:14.851Z,4.22
2019-05-26T19:26:00.064Z,2.83
2019-05-26T19:32:46.674Z,3.20
2019-05-26T19:39:31.545Z,4.70
2019-05-26T19:46:16.663Z,4.50
2019-05-26T19:53:01.656Z,3.87
2019-05-26T19:59:46.983Z,3.70
2019-05-26T20:06:32.065Z,3.13
2019-05-26T20:13:17.344Z,3.10
2019-05-26T20:20:02.356Z,3.13
2019-05-26T20:26:47.414Z,3.23
2019-05-26T20:33:32.326Z,3.10
2019-05-26T20:40:17.649Z,3.10
2019-05-26T20:47:02.677Z,3.43
2019-05-26T20:53:47.605Z,2.77
2019-05-26T21:00:32.726Z,3.27
2019-05-26T21:07:17.733Z,3.30
2019-05-26T21:14:02.720Z,3.17
2019-05-26T21:20:47.799Z,3.43
2019-05-26T21:27:32.940Z,4.00
2019-05-26T21:34:18.244Z,3.47
2019-05-26T21:41:03.252Z,4.30
2019-05-26T21:47:48.233Z,3.80
2019-05-26T21:54:33.558Z,3.97
2019-05-26T22:01:20.800Z,4.10
2019-05-26T22:08:05.752Z,4.50
2019-05-26T22:14:53.820Z,4.50
2019-05-26T22:21:39.571Z,5.03
2019-05-26T22:28:25.581Z,4.53
2019-05-26T22:35:14.163Z,5.13
2019-05-26T22:42:00.246Z,4.97
2019-05-26T22:48:45.139Z,5.33
2019-05-26T22:55:30.498Z,6.00
2019-05-26T23:02:15.433Z,5.63
2019-05-26T23:09:00.282Z,6.37
2019-05-26T23:15:45.249Z,6.70
2019-05-26T23:22:30.250Z,6.70
2019-05-26T23:29:15.498Z,6.67
2019-05-26T23:36:00.707Z,6.87
2019-05-26T23:42:45.579Z,6.60
2019-05-26T23:49:32.060Z,6.80
2019-05-26T23:56:16.942Z,7.03
